Amelia City, Florida
Current Conditions -  °F | °C
As of 4:35 PM on Friday 28 Nov 2014 (Local Time) from KFHB Reporting Station
Clear Clear  
Wind Chill: 54°   Ceiling: Unl
Heat Index: 54°   Visibility: 10mi
Dew Point: 37°   Wind: 7mph
Humidity: 54%   Direction: 20°NNE
Pressure: 30.3"   Gusts: NA
Location:  30.6056°N, 81.5268°W
Report Text: KFHB 282135Z AUTO 02006KT 10SM CLR 12/03 A3030 RMK AO1
Loading
Personal Weather Stations






























Interactive Weather Map New forecast layout! Learn more

10-Day Weather Forecast

Advertisements
Track Severe Weather on mobile